createdAt,value
2019-05-16T00:00:00.914Z,49.13
2019-05-16T00:02:31.106Z,59.33
2019-05-16T00:05:01.309Z,55.50
2019-05-16T00:07:31.614Z,57.53
2019-05-16T00:10:01.823Z,51.80
2019-05-16T00:12:32.210Z,52.10
2019-05-16T00:15:02.396Z,48.63
2019-05-16T00:17:33.649Z,50.33
2019-05-16T00:20:04.996Z,50.73
2019-05-16T00:22:35.199Z,56.37
2019-05-16T00:25:05.471Z,50.90
2019-05-16T00:27:35.786Z,50.17
2019-05-16T00:30:08.837Z,52.30
2019-05-16T00:32:39.291Z,56.23
2019-05-16T00:35:09.614Z,51.57
2019-05-16T00:37:39.867Z,55.17
2019-05-16T00:40:11.077Z,49.30
2019-05-16T00:42:41.234Z,52.27
2019-05-16T00:45:13.405Z,50.30
2019-05-16T00:47:43.322Z,46.00
2019-05-16T00:50:13.583Z,47.00
2019-05-16T00:52:43.712Z,52.00
2019-05-16T00:55:14.096Z,51.23
2019-05-16T00:57:44.729Z,57.27
2019-05-16T01:00:15.191Z,51.70
2019-05-16T01:02:45.390Z,60.63
2019-05-16T01:05:15.533Z,55.97
2019-05-16T01:07:47.882Z,52.20
2019-05-16T01:10:18.311Z,52.27
2019-05-16T01:12:48.669Z,49.37
2019-05-16T01:15:18.803Z,52.70
2019-05-16T01:17:48.954Z,57.40
2019-05-16T01:20:19.400Z,57.63
2019-05-16T01:22:49.736Z,58.10
2019-05-16T01:25:19.926Z,55.20
2019-05-16T01:27:50.061Z,52.30
2019-05-16T01:30:20.189Z,48.13
2019-05-16T01:32:50.319Z,53.30
2019-05-16T01:35:20.527Z,51.30
2019-05-16T01:37:50.626Z,48.23
2019-05-16T01:40:20.779Z,51.30
2019-05-16T01:42:50.949Z,45.37
2019-05-16T01:45:21.069Z,44.77
2019-05-16T01:47:51.194Z,45.67
2019-05-16T01:50:21.397Z,40.13
2019-05-16T01:52:51.560Z,39.47
2019-05-16T01:55:21.733Z,43.43
2019-05-16T01:57:51.909Z,38.10
2019-05-16T02:00:25.243Z,42.33
2019-05-16T02:02:53.876Z,37.60
2019-05-16T02:05:24.088Z,38.67
2019-05-16T02:07:54.241Z,41.87
2019-05-16T02:10:24.386Z,36.67
2019-05-16T02:12:54.610Z,38.27
2019-05-16T02:15:24.756Z,42.37
2019-05-16T02:17:54.995Z,42.70
2019-05-16T02:20:25.117Z,54.80
2019-05-16T02:22:55.201Z,45.27
2019-05-16T02:25:27.628Z,54.87
2019-05-16T02:27:58.974Z,42.80
2019-05-16T02:30:31.498Z,49.10
2019-05-16T02:33:01.318Z,47.97
2019-05-16T02:35:31.656Z,48.90
2019-05-16T02:38:01.885Z,48.77
2019-05-16T02:40:32.030Z,53.93
2019-05-16T02:43:02.292Z,52.07
2019-05-16T02:45:32.784Z,45.37
2019-05-16T02:48:03.126Z,52.97
2019-05-16T02:50:33.417Z,52.77
2019-05-16T02:53:03.570Z,53.40
2019-05-16T02:55:33.779Z,58.60
2019-05-16T02:58:03.997Z,55.60
2019-05-16T03:00:36.235Z,51.37
2019-05-16T03:03:06.921Z,41.93
2019-05-16T03:05:37.027Z,46.70
2019-05-16T03:08:07.168Z,41.93
2019-05-16T03:10:41.023Z,42.20
2019-05-16T03:13:11.193Z,37.73
2019-05-16T03:15:43.721Z,36.93
2019-05-16T03:18:14.228Z,37.87
2019-05-16T03:20:46.395Z,39.93
2019-05-16T03:23:16.522Z,41.07
2019-05-16T03:25:46.748Z,47.50
2019-05-16T03:28:16.887Z,45.30
2019-05-16T03:30:47.080Z,44.23
2019-05-16T03:33:25.926Z,46.10
2019-05-16T03:35:54.422Z,40.67
2019-05-16T03:38:21.438Z,37.63
2019-05-16T03:40:51.721Z,46.10
2019-05-16T03:43:22.218Z,39.30
2019-05-16T03:45:52.575Z,38.53
2019-05-16T03:48:22.768Z,39.73
2019-05-16T03:50:53.006Z,41.77
2019-05-16T03:53:23.425Z,44.13
2019-05-16T03:55:53.694Z,43.63
2019-05-16T03:58:23.882Z,44.87
2019-05-16T04:00:55.378Z,42.77
2019-05-16T04:03:28.613Z,37.43
2019-05-16T04:06:00.802Z,37.03
2019-05-16T04:08:31.084Z,36.87
2019-05-16T04:11:02.382Z,37.03
2019-05-16T04:13:32.731Z,37.47
2019-05-16T04:16:02.901Z,39.83
2019-05-16T04:18:33.110Z,43.27
2019-05-16T04:21:03.340Z,36.33
2019-05-16T04:23:33.571Z,37.60
2019-05-16T04:26:03.705Z,43.50
2019-05-16T04:28:33.904Z,44.87
2019-05-16T04:31:04.101Z,45.33
2019-05-16T04:33:34.239Z,42.57
2019-05-16T04:36:04.487Z,47.33
2019-05-16T04:38:41.309Z,42.17
2019-05-16T04:41:07.524Z,43.70
2019-05-16T04:43:37.728Z,39.43
2019-05-16T04:46:11.664Z,46.30
2019-05-16T04:48:41.692Z,45.00
2019-05-16T04:51:12.196Z,47.53
2019-05-16T04:53:42.799Z,50.30
2019-05-16T04:56:32.311Z,46.37
2019-05-16T04:59:02.367Z,45.67
2019-05-16T05:01:32.595Z,50.93
2019-05-16T05:04:10.746Z,52.67
2019-05-16T05:06:34.663Z,67.90
2019-05-16T05:09:06.185Z,58.10
2019-05-16T05:11:36.320Z,53.13
2019-05-16T05:14:10.319Z,59.40
2019-05-16T05:16:41.322Z,57.73
2019-05-16T05:19:11.417Z,64.30
2019-05-16T05:21:41.675Z,61.37
2019-05-16T05:24:11.878Z,67.60
2019-05-16T05:26:42.107Z,75.40
2019-05-16T05:29:12.297Z,78.87
2019-05-16T05:31:44.804Z,88.63
2019-05-16T05:34:14.257Z,94.77
2019-05-16T05:36:44.478Z,103.03
2019-05-16T05:39:15.546Z,112.33
2019-05-16T05:41:45.896Z,121.07
2019-05-16T05:44:16.167Z,126.17
2019-05-16T05:46:46.310Z,133.67
2019-05-16T05:49:16.448Z,120.13
2019-05-16T05:51:46.516Z,119.67
2019-05-16T05:54:16.718Z,115.63
2019-05-16T05:56:46.871Z,117.10
2019-05-16T05:59:17.022Z,99.63
2019-05-16T06:01:47.173Z,92.23
2019-05-16T06:04:19.678Z,105.90
2019-05-16T06:06:50.324Z,109.17
2019-05-16T06:09:28.328Z,113.93
2019-05-16T06:11:52.654Z,105.27
2019-05-16T06:14:23.860Z,103.13
2019-05-16T06:16:53.994Z,102.20
2019-05-16T06:19:24.138Z,102.83
2019-05-16T06:21:54.322Z,115.07
2019-05-16T06:24:24.455Z,93.07
2019-05-16T06:26:54.646Z,88.37
2019-05-16T06:29:24.794Z,92.57
2019-05-16T06:31:54.933Z,99.07
2019-05-16T06:34:25.190Z,83.30
2019-05-16T06:36:55.392Z,86.00
2019-05-16T06:39:37.527Z,81.67
2019-05-16T06:41:57.311Z,71.43
2019-05-16T06:44:27.466Z,63.57
2019-05-16T06:47:14.945Z,58.37
2019-05-16T06:49:30.410Z,84.83
2019-05-16T06:52:00.774Z,65.87
2019-05-16T06:54:30.937Z,72.70
2019-05-16T06:57:01.162Z,54.40
2019-05-16T06:59:31.228Z,56.00
2019-05-16T07:02:01.358Z,55.80
2019-05-16T07:04:31.499Z,59.07
2019-05-16T07:07:03.095Z,58.37
2019-05-16T07:09:33.553Z,55.37
2019-05-16T07:12:03.706Z,49.47
2019-05-16T07:14:33.765Z,51.13
2019-05-16T07:17:03.952Z,48.30
2019-05-16T07:19:35.538Z,52.53
2019-05-16T07:22:05.846Z,51.27
2019-05-16T07:24:35.979Z,50.20
2019-05-16T07:27:09.014Z,45.60
2019-05-16T07:29:40.078Z,45.40
2019-05-16T07:32:09.846Z,46.07
2019-05-16T07:34:40.416Z,51.13
2019-05-16T07:37:11.719Z,37.87
2019-05-16T07:39:42.076Z,34.30
2019-05-16T07:42:12.241Z,28.07
2019-05-16T07:44:42.730Z,25.43
2019-05-16T07:47:12.882Z,20.73
2019-05-16T07:49:43.011Z,20.63
2019-05-16T07:52:13.171Z,17.00
2019-05-16T07:54:43.295Z,17.47
2019-05-16T07:57:19.655Z,12.73
2019-05-16T07:59:46.351Z,11.73
2019-05-16T08:02:16.582Z,13.83
2019-05-16T08:04:46.724Z,13.83
2019-05-16T08:07:16.927Z,29.27
2019-05-16T08:09:47.103Z,21.73
2019-05-16T08:12:23.483Z,23.30
2019-05-16T08:14:50.191Z,24.07
2019-05-16T08:17:21.889Z,30.07
2019-05-16T08:19:52.208Z,17.87
2019-05-16T08:22:22.877Z,15.57
2019-05-16T08:24:53.309Z,19.43
2019-05-16T08:27:23.511Z,15.47
2019-05-16T08:29:53.582Z,15.30
2019-05-16T08:32:23.778Z,14.97
2019-05-16T08:34:53.995Z,13.10
2019-05-16T08:37:37.520Z,13.93
2019-05-16T08:39:56.102Z,14.60
2019-05-16T08:42:26.408Z,16.03
2019-05-16T08:44:56.590Z,15.57
2019-05-16T08:47:26.857Z,14.53
2019-05-16T08:49:57.051Z,16.40
2019-05-16T08:52:27.246Z,23.03
2019-05-16T08:54:57.653Z,13.10
2019-05-16T08:57:32.282Z,12.27
2019-05-16T09:00:01.335Z,13.83
2019-05-16T09:05:05.332Z,20.67
2019-05-16T09:07:35.462Z,19.37
2019-05-16T09:10:35.347Z,19.13
2019-05-16T09:10:42.043Z,15.10
2019-05-16T09:12:38.400Z,18.60
2019-05-16T09:15:09.861Z,9.83
2019-05-16T09:17:40.175Z,7.00
2019-05-16T09:20:10.752Z,7.77
2019-05-16T09:22:41.009Z,6.70
2019-05-16T09:25:11.589Z,7.47
2019-05-16T09:27:41.816Z,7.50
2019-05-16T09:30:12.186Z,7.17
2019-05-16T09:32:43.506Z,10.50
2019-05-16T09:35:13.925Z,8.53
2019-05-16T09:37:47.116Z,6.50
2019-05-16T09:40:17.445Z,8.63
2019-05-16T09:42:48.912Z,10.53
2019-05-16T09:45:19.410Z,12.23
2019-05-16T09:47:49.656Z,16.70
2019-05-16T09:50:20.096Z,16.07
2019-05-16T09:52:50.350Z,20.43
2019-05-16T09:55:20.813Z,15.10
2019-05-16T09:57:54.434Z,15.60
2019-05-16T10:00:26.941Z,17.00
2019-05-16T10:02:57.932Z,12.90
2019-05-16T10:05:28.428Z,14.43
2019-05-16T10:07:58.887Z,15.70
2019-05-16T10:10:29.061Z,19.43
2019-05-16T10:12:59.467Z,22.30
2019-05-16T10:15:29.678Z,22.27
2019-05-16T10:17:59.863Z,27.53
2019-05-16T10:20:30.092Z,30.10
2019-05-16T10:23:00.286Z,34.63
2019-05-16T10:25:30.521Z,37.13
2019-05-16T10:28:00.805Z,41.47
2019-05-16T10:30:30.915Z,46.57
2019-05-16T10:33:01.161Z,42.10
2019-05-16T10:35:31.402Z,42.47
2019-05-16T10:38:01.609Z,43.40
2019-05-16T10:40:31.968Z,38.60
2019-05-16T10:43:02.357Z,41.77
2019-05-16T10:45:32.734Z,42.13
2019-05-16T10:48:02.879Z,42.20
2019-05-16T10:50:33.088Z,46.17
2019-05-16T10:53:27.826Z,39.23
2019-05-16T10:55:36.816Z,33.97
2019-05-16T10:58:07.797Z,33.13
2019-05-16T11:01:05.508Z,37.03
2019-05-16T11:03:10.021Z,35.00
2019-05-16T11:05:40.260Z,34.47
2019-05-16T11:08:10.628Z,32.10
2019-05-16T11:10:41.035Z,31.07
2019-05-16T11:13:11.405Z,26.53
2019-05-16T11:15:41.594Z,26.80
2019-05-16T11:18:11.848Z,24.33
2019-05-16T11:20:45.072Z,19.43
2019-05-16T11:23:13.875Z,19.73
2019-05-16T11:25:44.127Z,24.33
2019-05-16T11:28:14.339Z,24.50
2019-05-16T11:30:44.569Z,24.67
2019-05-16T11:33:17.164Z,28.17
2019-05-16T11:35:47.649Z,28.80
2019-05-16T11:38:19.251Z,33.80
2019-05-16T11:40:49.522Z,34.57
2019-05-16T11:43:21.897Z,35.93
2019-05-16T11:45:51.634Z,38.77
2019-05-16T11:48:25.065Z,42.17
2019-05-16T11:50:56.747Z,40.20
2019-05-16T11:53:28.309Z,41.73
2019-05-16T11:56:02.063Z,43.50
2019-05-16T11:58:32.554Z,45.20
2019-05-16T12:01:02.965Z,46.67
2019-05-16T12:03:33.203Z,49.00
2019-05-16T12:06:03.437Z,48.43
2019-05-16T12:08:33.803Z,42.87
2019-05-16T12:11:03.966Z,43.00
2019-05-16T12:13:36.871Z,42.97
2019-05-16T12:16:07.569Z,44.63
2019-05-16T12:18:38.205Z,46.53
2019-05-16T12:21:08.350Z,38.00
2019-05-16T12:23:38.581Z,34.70
2019-05-16T12:26:08.754Z,38.53
2019-05-16T12:28:38.962Z,41.00
2019-05-16T12:31:09.280Z,41.60
2019-05-16T12:33:39.708Z,37.40
2019-05-16T12:36:09.921Z,45.03
2019-05-16T12:38:40.015Z,39.30
2019-05-16T12:41:10.205Z,38.80
2019-05-16T12:43:48.842Z,38.77
2019-05-16T12:46:12.276Z,38.67
2019-05-16T12:48:42.488Z,35.83
2019-05-16T12:51:12.569Z,39.03
2019-05-16T12:53:42.723Z,37.13
2019-05-16T12:56:12.883Z,35.13
2019-05-16T12:58:43.063Z,35.33
2019-05-16T13:01:16.372Z,40.03
2019-05-16T13:03:47.863Z,33.43
2019-05-16T13:06:17.303Z,31.70
2019-05-16T13:08:48.650Z,33.13
2019-05-16T13:11:19.364Z,34.07
2019-05-16T13:14:02.530Z,40.53
2019-05-16T13:16:21.487Z,38.13
2019-05-16T13:18:51.624Z,37.80
2019-05-16T13:21:22.977Z,42.13
2019-05-16T13:23:53.421Z,36.27
2019-05-16T13:26:23.563Z,40.73
2019-05-16T13:28:53.813Z,38.63
2019-05-16T13:31:24.007Z,34.87
2019-05-16T13:33:56.699Z,40.10
2019-05-16T13:36:27.214Z,38.37
2019-05-16T13:38:57.717Z,42.03
2019-05-16T13:41:27.952Z,36.50
2019-05-16T13:43:58.234Z,37.13
2019-05-16T13:46:28.493Z,35.47
2019-05-16T13:48:59.008Z,35.53
2019-05-16T13:51:29.222Z,33.87
2019-05-16T13:53:59.563Z,34.57
2019-05-16T13:56:29.838Z,33.13
2019-05-16T13:59:00.174Z,35.63
2019-05-16T14:01:30.328Z,31.83
2019-05-16T14:04:01.655Z,32.73
2019-05-16T14:06:31.948Z,34.77
2019-05-16T14:09:02.226Z,36.40
2019-05-16T14:11:36.361Z,30.40
2019-05-16T14:14:05.982Z,30.03
2019-05-16T14:16:37.752Z,30.33
2019-05-16T14:19:08.163Z,30.33
2019-05-16T14:21:38.419Z,32.23
2019-05-16T14:24:08.880Z,29.83
2019-05-16T14:26:39.191Z,30.57
2019-05-16T14:29:09.396Z,31.50
2019-05-16T14:31:39.622Z,29.13
2019-05-16T14:34:09.851Z,33.87
2019-05-16T14:36:40.045Z,30.60
2019-05-16T14:39:10.613Z,35.77
2019-05-16T14:41:40.929Z,30.77
2019-05-16T14:44:11.152Z,28.80
2019-05-16T14:46:41.286Z,29.00
2019-05-16T14:49:12.575Z,26.83
2019-05-16T14:51:42.858Z,29.10
2019-05-16T14:54:13.131Z,28.13
2019-05-16T14:56:43.396Z,26.80
2019-05-16T14:59:13.677Z,23.70
2019-05-16T15:01:43.802Z,22.30
2019-05-16T15:04:14.054Z,22.20
2019-05-16T15:06:46.793Z,24.53
2019-05-16T15:09:17.164Z,22.70
2019-05-16T15:11:48.171Z,22.33
2019-05-16T15:14:28.614Z,23.50
2019-05-16T15:16:58.920Z,23.13
2019-05-16T15:19:29.123Z,21.80
2019-05-16T15:22:02.399Z,20.03
2019-05-16T15:24:31.144Z,19.20
2019-05-16T15:27:02.177Z,19.07
2019-05-16T15:29:32.500Z,19.23
2019-05-16T15:32:02.739Z,17.33
2019-05-16T15:34:34.682Z,18.43
2019-05-16T15:37:07.695Z,19.63
2019-05-16T15:39:37.513Z,19.00
2019-05-16T15:42:08.397Z,20.33
2019-05-16T15:44:38.719Z,19.67
2019-05-16T15:47:09.055Z,20.87
2019-05-16T15:49:39.212Z,19.23
2019-05-16T15:52:09.619Z,21.87
2019-05-16T15:54:41.878Z,18.77
2019-05-16T15:57:12.077Z,18.57
2019-05-16T15:59:42.274Z,20.03
2019-05-16T16:02:12.505Z,19.47
2019-05-16T16:04:42.659Z,19.40
2019-05-16T16:07:12.903Z,18.20
2019-05-16T16:09:43.074Z,19.87
2019-05-16T16:12:13.443Z,17.20
2019-05-16T16:14:43.561Z,21.40
2019-05-16T16:17:13.786Z,17.13
2019-05-16T16:19:44.026Z,16.93
2019-05-16T16:22:14.255Z,19.67
2019-05-16T16:24:47.538Z,15.20
2019-05-16T16:27:16.989Z,16.57
2019-05-16T16:29:48.009Z,16.37
2019-05-16T16:32:18.496Z,18.80
2019-05-16T16:34:49.059Z,17.50
2019-05-16T16:37:19.355Z,17.63
2019-05-16T16:39:49.500Z,19.13
2019-05-16T16:42:20.650Z,20.53
2019-05-16T16:44:50.875Z,21.37
2019-05-16T16:47:21.026Z,23.13
2019-05-16T16:49:53.554Z,20.17
2019-05-16T16:52:23.833Z,19.17
2019-05-16T16:54:56.699Z,21.30
2019-05-16T16:57:27.084Z,20.97
2019-05-16T16:59:57.610Z,22.47
2019-05-16T17:02:27.995Z,25.50
2019-05-16T17:05:01.738Z,21.87
2019-05-16T17:07:30.265Z,22.50
2019-05-16T17:10:00.501Z,26.60
2019-05-16T17:12:30.748Z,23.60
2019-05-16T17:15:00.900Z,26.27
2019-05-16T17:17:31.073Z,27.93
2019-05-16T17:20:01.255Z,29.67
2019-05-16T17:22:37.273Z,28.60
2019-05-16T17:25:07.821Z,29.53
2019-05-16T17:27:38.390Z,27.00
2019-05-16T17:30:17.028Z,31.83
2019-05-16T17:32:47.628Z,28.03
2019-05-16T17:35:19.000Z,28.47
2019-05-16T17:37:49.462Z,27.80
2019-05-16T17:40:20.117Z,33.23
2019-05-16T17:42:50.510Z,28.37
2019-05-16T17:45:21.222Z,33.00
2019-05-16T17:47:51.686Z,30.23
2019-05-16T17:50:22.912Z,29.00
2019-05-16T17:52:53.135Z,31.20
2019-05-16T17:55:23.492Z,31.50
2019-05-16T17:57:53.834Z,31.73
2019-05-16T18:00:28.736Z,34.93
2019-05-16T18:02:57.018Z,40.63
2019-05-16T18:05:30.602Z,36.27
2019-05-16T18:08:01.199Z,37.17
2019-05-16T18:10:31.447Z,32.27
2019-05-16T18:13:01.719Z,34.57
2019-05-16T18:15:31.893Z,39.37
2019-05-16T18:18:02.113Z,49.07
2019-05-16T18:20:32.352Z,40.93
2019-05-16T18:23:02.555Z,35.50
2019-05-16T18:25:32.818Z,40.87
2019-05-16T18:28:04.043Z,37.83
2019-05-16T18:30:36.377Z,38.70
2019-05-16T18:33:07.285Z,39.47
2019-05-16T18:35:38.984Z,42.47
2019-05-16T18:38:09.246Z,37.77
2019-05-16T18:40:39.428Z,42.90
2019-05-16T18:43:09.775Z,40.77
2019-05-16T18:45:39.922Z,43.00
2019-05-16T18:48:10.171Z,44.50
2019-05-16T18:50:40.349Z,43.20
2019-05-16T18:53:10.614Z,45.97
2019-05-16T18:55:40.829Z,45.37
2019-05-16T18:58:10.911Z,43.03
2019-05-16T19:00:41.249Z,44.10
2019-05-16T19:03:11.529Z,48.17
2019-05-16T19:05:41.739Z,51.03
2019-05-16T19:08:11.895Z,52.43
2019-05-16T19:10:42.097Z,58.10
2019-05-16T19:13:12.542Z,61.23
2019-05-16T19:15:42.724Z,65.80
2019-05-16T19:18:12.991Z,66.03
2019-05-16T19:20:43.206Z,64.03
2019-05-16T19:23:13.385Z,69.57
2019-05-16T19:25:43.633Z,72.20
2019-05-16T19:28:13.843Z,81.20
2019-05-16T19:30:46.396Z,95.13
2019-05-16T19:33:17.489Z,96.83
2019-05-16T19:35:49.066Z,94.43
2019-05-16T19:38:20.520Z,85.73
2019-05-16T19:40:50.800Z,74.10
2019-05-16T19:43:21.039Z,77.80
2019-05-16T19:45:51.990Z,68.53
2019-05-16T19:48:22.354Z,78.93
2019-05-16T19:50:52.547Z,78.87
2019-05-16T19:53:22.754Z,76.30
2019-05-16T19:55:56.389Z,88.80
2019-05-16T19:58:26.644Z,79.73
2019-05-16T20:00:57.451Z,81.70
2019-05-16T20:03:27.804Z,81.30
2019-05-16T20:05:57.998Z,91.00
2019-05-16T20:08:28.310Z,99.13
2019-05-16T20:10:58.511Z,89.70
2019-05-16T20:13:28.660Z,79.67
2019-05-16T20:15:59.883Z,82.97
2019-05-16T20:18:30.479Z,88.90
2019-05-16T20:21:01.146Z,92.73
2019-05-16T20:23:31.435Z,105.47
2019-05-16T20:26:01.660Z,102.50
2019-05-16T20:28:31.946Z,89.37
2019-05-16T20:31:03.287Z,91.37
2019-05-16T20:33:33.534Z,91.87
2019-05-16T20:36:06.299Z,101.53
2019-05-16T20:38:37.207Z,115.90
2019-05-16T20:41:07.976Z,106.13
2019-05-16T20:43:38.250Z,114.23
2019-05-16T20:46:08.526Z,119.57
2019-05-16T20:48:38.738Z,130.10
2019-05-16T20:51:08.870Z,102.70
2019-05-16T20:53:39.085Z,106.60
2019-05-16T20:56:09.415Z,110.13
2019-05-16T20:58:40.726Z,99.37
2019-05-16T21:01:10.978Z,86.30
2019-05-16T21:03:41.094Z,81.67
2019-05-16T21:06:11.306Z,92.53
2019-05-16T21:08:41.574Z,111.93
2019-05-16T21:11:11.789Z,107.83
2019-05-16T21:13:42.134Z,91.93
2019-05-16T21:16:12.510Z,105.87
2019-05-16T21:18:42.821Z,119.43
2019-05-16T21:21:12.982Z,126.67
2019-05-16T21:23:43.158Z,118.93
2019-05-16T21:26:13.293Z,132.60
2019-05-16T21:28:43.591Z,144.27
2019-05-16T21:31:13.833Z,121.40
2019-05-16T21:33:44.145Z,125.17
2019-05-16T21:36:16.054Z,105.93
2019-05-16T21:38:46.901Z,108.60
2019-05-16T21:41:17.350Z,111.93
2019-05-16T21:43:47.527Z,114.70
2019-05-16T21:46:20.130Z,107.13
2019-05-16T21:48:49.543Z,96.57
2019-05-16T21:51:19.880Z,110.00
2019-05-16T21:53:50.134Z,109.97
2019-05-16T21:56:20.470Z,105.17
2019-05-16T21:58:50.642Z,93.10
2019-05-16T22:01:22.985Z,96.67
2019-05-16T22:03:53.276Z,88.90
2019-05-16T22:06:23.599Z,150.50
2019-05-16T22:08:54.009Z,117.43
2019-05-16T22:11:26.292Z,121.37
2019-05-16T22:13:57.611Z,142.97
2019-05-16T22:16:27.978Z,145.27
2019-05-16T22:18:59.355Z,194.40
2019-05-16T22:21:29.601Z,140.30
2019-05-16T22:23:59.909Z,103.33
2019-05-16T22:26:30.206Z,83.87
2019-05-16T22:29:00.359Z,105.23
2019-05-16T22:31:30.666Z,90.13
2019-05-16T22:34:01.089Z,73.13
2019-05-16T22:36:31.409Z,74.23
2019-05-16T22:39:01.610Z,60.13
2019-05-16T22:41:33.371Z,70.67
2019-05-16T22:44:03.457Z,55.93
2019-05-16T22:46:33.695Z,73.03
2019-05-16T22:49:03.931Z,62.03
2019-05-16T22:51:36.506Z,58.63
2019-05-16T22:54:07.676Z,71.57
2019-05-16T22:56:38.289Z,72.73
2019-05-16T22:59:08.481Z,63.17
2019-05-16T23:01:38.794Z,55.23
2019-05-16T23:04:09.083Z,53.20
2019-05-16T23:06:39.314Z,54.33
2019-05-16T23:09:09.490Z,62.63
2019-05-16T23:11:39.719Z,70.40
2019-05-16T23:14:09.885Z,62.20
2019-05-16T23:16:40.066Z,71.50
2019-05-16T23:19:10.243Z,78.27
2019-05-16T23:21:40.444Z,68.97
2019-05-16T23:24:10.682Z,62.83
2019-05-16T23:26:41.006Z,53.13
2019-05-16T23:29:11.190Z,57.37
2019-05-16T23:31:41.370Z,60.57
2019-05-16T23:34:11.551Z,57.47
2019-05-16T23:36:41.715Z,59.87
2019-05-16T23:39:11.878Z,53.33
2019-05-16T23:41:42.120Z,54.63
2019-05-16T23:44:12.379Z,58.27
2019-05-16T23:46:42.580Z,56.40
2019-05-16T23:49:12.867Z,62.57
2019-05-16T23:51:43.056Z,70.73
2019-05-16T23:54:13.221Z,84.37
2019-05-16T23:56:43.418Z,106.67
2019-05-16T23:59:13.682Z,102.20
